Time;durP1;ratioP1;P1;durP2;ratioP2;P2;SDS_P1;SDS_P2;PMS_P1;PMS_P2;Temp;Humidity;BMP_temperature;BMP_pressure;BME280_temperature;BME280_humidity;BME280_pressure;Samples;Min_cycle;Max_cycle;Signal;HPM_P1;HPM_P2
2021/11/13 00:01:34;;;;;;;48.33;28.60;;;5.40;99.90;;;;;;5095600;27;20282;-86
2021/11/13 00:04:01;;;;;;;50.88;28.67;;;5.40;99.90;;;;;;5093164;28;20608;-85
2021/11/13 00:06:28;;;;;;;52.75;28.15;;;5.40;99.90;;;;;;5107304;28;20187;-85
2021/11/13 00:08:55;;;;;;;48.20;28.38;;;5.40;99.90;;;;;;5106862;27;20296;-85
2021/11/13 00:11:22;;;;;;;46.00;27.42;;;5.40;99.90;;;;;;5103977;28;20538;-85
2021/11/13 00:13:54;;;;;;;43.53;27.77;;;5.40;99.90;;;;;;5088852;28;20206;-85
2021/11/13 00:16:20;;;;;;;47.08;27.60;;;5.40;99.90;;;;;;5106351;28;20206;-85
2021/11/13 00:18:48;;;;;;;46.92;27.92;;;5.50;99.90;;;;;;5106235;28;20187;-85
2021/11/13 00:21:14;;;;;;;45.70;26.80;;;5.50;99.90;;;;;;5106547;28;20183;-85
2021/11/13 00:23:41;;;;;;;52.35;28.17;;;5.50;99.90;;;;;;5090553;28;20277;-85
2021/11/13 00:26:09;;;;;;;45.50;25.35;;;5.60;99.90;;;;;;5097009;28;20277;-86
2021/11/13 00:28:36;;;;;;;48.78;28.05;;;5.60;99.90;;;;;;5106859;28;20697;-87
2021/11/13 00:31:02;;;;;;;47.13;26.63;;;5.60;99.90;;;;;;5106633;28;20266;-86
2021/11/13 00:33:29;;;;;;;46.15;27.92;;;5.60;99.90;;;;;;5098452;28;20279;-85
2021/11/13 00:35:56;;;;;;;52.22;28.25;;;5.60;99.90;;;;;;5088213;28;20187;-85
2021/11/13 00:38:22;;;;;;;50.55;26.35;;;5.60;99.90;;;;;;5060855;28;20647;-85
2021/11/13 00:40:49;;;;;;;48.00;27.83;;;5.60;99.90;;;;;;5106430;28;20618;-85
2021/11/13 00:43:19;;;;;;;48.83;27.75;;;5.60;99.90;;;;;;5065353;27;20595;-86
2021/11/13 00:45:46;;;;;;;44.92;26.40;;;5.60;99.90;;;;;;5081863;28;20272;-87
2021/11/13 00:48:13;;;;;;;50.00;27.00;;;5.60;99.90;;;;;;5098490;28;20874;-84
2021/11/13 00:50:40;;;;;;;43.90;26.75;;;5.70;99.90;;;;;;5104181;28;20483;-83
2021/11/13 00:53:07;;;;;;;46.80;26.23;;;5.70;99.90;;;;;;5104636;27;20190;-85
2021/11/13 00:55:36;;;;;;;44.58;25.27;;;5.70;99.90;;;;;;5092081;27;20301;-86
2021/11/13 00:58:02;;;;;;;47.15;26.90;;;5.70;99.90;;;;;;5090813;28;20270;-85
2021/11/13 01:00:31;;;;;;;45.78;25.92;;;5.80;99.90;;;;;;5104480;28;20270;-85
2021/11/13 01:02:57;;;;;;;47.70;26.15;;;5.80;99.90;;;;;;5104376;28;20290;-85
2021/11/13 01:05:24;;;;;;;44.17;25.77;;;5.80;99.90;;;;;;5098448;28;20214;-86
2021/11/13 01:07:50;;;;;;;49.55;29.00;;;5.80;99.90;;;;;;5086478;28;20282;-85
2021/11/13 01:10:20;;;;;;;46.22;25.77;;;5.80;99.90;;;;;;5102154;27;20262;-86
2021/11/13 01:12:48;;;;;;;41.83;26.35;;;5.80;99.90;;;;;;5107538;27;20344;-87
2021/11/13 01:15:16;;;;;;;46.85;25.90;;;5.80;99.90;;;;;;5107650;27;20219;-86
2021/11/13 01:17:44;;;;;;;44.90;25.45;;;5.80;99.90;;;;;;5084693;27;20247;-86
2021/11/13 01:20:13;;;;;;;46.60;26.33;;;5.80;99.90;;;;;;5099906;27;20332;-86
2021/11/13 01:22:40;;;;;;;47.10;26.73;;;5.90;99.90;;;;;;5107315;27;20219;-86
2021/11/13 01:25:08;;;;;;;41.70;26.67;;;5.90;99.90;;;;;;5107213;27;20277;-86
2021/11/13 01:27:35;;;;;;;45.67;27.05;;;5.90;99.90;;;;;;5080582;27;20183;-87
2021/11/13 01:30:01;;;;;;;43.40;25.63;;;5.90;99.90;;;;;;5058551;27;20270;-86
2021/11/13 01:32:28;;;;;;;47.77;26.87;;;5.90;99.90;;;;;;5079413;27;20240;-84
2021/11/13 01:34:56;;;;;;;46.63;27.95;;;6.00;99.90;;;;;;5090169;27;21090;-82
2021/11/13 01:37:22;;;;;;;46.42;25.58;;;6.00;99.90;;;;;;5093990;27;20230;-83
2021/11/13 01:39:49;;;;;;;48.33;26.90;;;6.00;99.90;;;;;;5113651;27;20226;-83
2021/11/13 01:42:15;;;;;;;42.15;25.38;;;6.00;99.90;;;;;;5041753;27;20222;-84
2021/11/13 01:44:42;;;;;;;39.65;24.25;;;6.00;99.90;;;;;;5068556;27;20215;-84
2021/11/13 01:47:09;;;;;;;47.55;25.10;;;5.90;99.90;;;;;;5079821;27;20305;-84
2021/11/13 01:49:37;;;;;;;41.30;25.25;;;5.90;99.90;;;;;;5103171;27;20271;-83
2021/11/13 01:52:09;;;;;;;48.60;26.30;;;5.90;99.90;;;;;;5053157;27;20213;-83
2021/11/13 01:54:39;;;;;;;37.42;22.80;;;6.00;99.90;;;;;;5132026;27;20246;-83
2021/11/13 01:57:09;;;;;;;45.00;27.02;;;6.00;99.90;;;;;;5082068;27;20188;-83
2021/11/13 01:59:35;;;;;;;38.75;24.08;;;6.00;99.90;;;;;;5079951;27;20199;-83
2021/11/13 02:02:03;;;;;;;47.38;24.92;;;6.00;99.90;;;;;;5053003;27;20212;-82
2021/11/13 02:04:30;;;;;;;43.42;24.58;;;5.90;99.90;;;;;;5108004;27;20230;-82
2021/11/13 02:06:57;;;;;;;46.58;26.23;;;5.90;99.90;;;;;;5078125;27;20275;-83
2021/11/13 02:09:25;;;;;;;46.58;24.65;;;5.90;99.90;;;;;;5072320;27;20622;-84
2021/11/13 02:11:51;;;;;;;47.05;25.25;;;5.80;99.90;;;;;;5088832;27;20259;-83
2021/11/13 02:14:18;;;;;;;40.92;24.13;;;5.80;99.90;;;;;;5104223;27;20290;-83
2021/11/13 02:16:44;;;;;;;40.08;24.48;;;5.80;99.90;;;;;;5106658;27;20266;-83
2021/11/13 02:19:11;;;;;;;41.50;25.65;;;5.80;99.90;;;;;;5106269;27;20619;-83
2021/11/13 02:21:39;;;;;;;39.85;23.75;;;5.70;99.90;;;;;;5090553;27;20270;-82
2021/11/13 02:24:06;;;;;;;41.60;24.25;;;5.80;99.90;;;;;;5095039;27;20213;-82
2021/11/13 02:26:32;;;;;;;44.47;24.00;;;5.80;99.90;;;;;;5106320;27;20274;-81
2021/11/13 02:29:00;;;;;;;40.30;23.58;;;5.80;99.90;;;;;;5106004;27;20241;-82
2021/11/13 02:31:34;;;;;;;45.00;25.30;;;5.80;99.90;;;;;;5098769;27;20186;-81
2021/11/13 02:34:01;;;;;;;44.60;26.20;;;5.90;99.90;;;;;;5091917;27;20273;-82
2021/11/13 02:36:28;;;;;;;39.55;23.55;;;5.80;99.90;;;;;;5106144;27;20274;-82
2021/11/13 02:39:00;;;;;;;38.05;22.55;;;5.80;99.90;;;;;;5102801;27;20226;-82
2021/11/13 02:41:29;;;;;;;42.88;25.02;;;5.90;99.90;;;;;;5097986;27;20294;-82
2021/11/13 02:43:56;;;;;;;42.60;25.83;;;5.90;99.90;;;;;;5061537;27;20260;-83
2021/11/13 02:46:23;;;;;;;39.30;23.50;;;5.90;99.90;;;;;;5048584;27;20271;-84
2021/11/13 02:48:51;;;;;;;40.72;25.30;;;5.90;99.90;;;;;;5059655;27;20229;-83
2021/11/13 02:51:17;;;;;;;35.85;23.20;;;5.80;99.90;;;;;;5060344;27;20279;-84
2021/11/13 02:53:45;;;;;;;39.67;23.75;;;5.90;99.90;;;;;;5077373;27;20265;-85
2021/11/13 02:56:13;;;;;;;41.75;23.13;;;5.90;99.90;;;;;;5065821;27;20256;-84
2021/11/13 02:58:41;;;;;;;41.17;25.10;;;5.90;99.90;;;;;;5059709;27;20195;-84
2021/11/13 03:01:10;;;;;;;37.10;22.80;;;5.80;99.90;;;;;;5059708;27;20300;-84
2021/11/13 03:03:38;;;;;;;38.28;23.05;;;5.90;99.90;;;;;;5074245;27;20184;-85
2021/11/13 03:06:09;;;;;;;39.90;24.15;;;5.90;99.90;;;;;;5071169;27;20655;-84
2021/11/13 03:08:36;;;;;;;38.30;23.90;;;5.90;99.90;;;;;;5059385;27;20278;-85
2021/11/13 03:11:06;;;;;;;39.38;22.80;;;5.90;99.90;;;;;;5059317;27;20218;-84
2021/11/13 03:13:36;;;;;;;46.00;22.85;;;5.90;99.90;;;;;;5071176;27;20213;-84
2021/11/13 03:16:05;;;;;;;38.15;22.95;;;5.90;99.90;;;;;;5072009;27;20308;-83
2021/11/13 03:18:32;;;;;;;43.90;23.25;;;5.80;99.90;;;;;;5058588;27;20274;-83
2021/11/13 03:21:04;;;;;;;35.55;22.55;;;5.90;99.90;;;;;;5058462;27;20290;-82
2021/11/13 03:23:31;;;;;;;36.17;22.15;;;5.80;99.90;;;;;;5069470;27;20280;-82
2021/11/13 03:26:01;;;;;;;39.97;24.40;;;5.90;99.90;;;;;;5074884;27;20263;-82
2021/11/13 03:28:31;;;;;;;37.75;23.92;;;5.90;99.90;;;;;;5058800;27;20211;-82
2021/11/13 03:31:02;;;;;;;39.92;23.45;;;5.90;99.90;;;;;;5058457;27;20729;-82
2021/11/13 03:33:28;;;;;;;41.15;25.35;;;5.90;99.90;;;;;;5086898;27;20187;-82
2021/11/13 03:35:55;;;;;;;44.05;24.08;;;5.90;99.90;;;;;;5087428;27;20210;-82
2021/11/13 03:38:22;;;;;;;37.87;23.80;;;6.00;99.90;;;;;;5046837;27;20665;-82
2021/11/13 03:40:50;;;;;;;39.67;23.42;;;5.90;99.90;;;;;;5105139;27;20536;-82
2021/11/13 03:43:17;;;;;;;41.75;23.55;;;6.00;99.90;;;;;;5050068;27;20277;-82
2021/11/13 03:45:45;;;;;;;40.28;24.15;;;6.00;99.90;;;;;;5075930;27;20294;-82
2021/11/13 03:48:13;;;;;;;36.53;23.73;;;6.00;99.90;;;;;;5065128;27;20596;-82
2021/11/13 03:50:40;;;;;;;41.50;22.80;;;6.00;99.90;;;;;;5058308;28;20214;-82
2021/11/13 03:53:08;;;;;;;40.90;21.88;;;6.00;99.90;;;;;;5058657;27;20274;-84
2021/11/13 03:55:35;;;;;;;42.40;25.33;;;6.00;99.90;;;;;;5071866;28;20230;-84
2021/11/13 03:58:02;;;;;;;44.60;25.02;;;6.00;99.90;;;;;;5047977;28;20680;-85
2021/11/13 04:00:29;;;;;;;38.05;22.88;;;6.00;99.90;;;;;;5105217;28;20218;-84
2021/11/13 04:02:56;;;;;;;38.92;24.13;;;6.10;99.90;;;;;;5105451;28;20278;-84
2021/11/13 04:05:24;;;;;;;37.55;23.80;;;6.10;99.90;;;;;;5100353;28;20282;-85
2021/11/13 04:07:51;;;;;;;38.10;24.33;;;6.10;99.90;;;;;;5087735;28;20183;-84
2021/11/13 04:10:18;;;;;;;38.20;23.75;;;6.10;99.90;;;;;;5058560;28;20187;-84
2021/11/13 04:12:46;;;;;;;42.97;23.70;;;6.10;99.90;;;;;;5057983;28;20405;-82
2021/11/13 04:15:14;;;;;;;37.53;23.15;;;6.10;99.90;;;;;;5057855;28;20560;-82
2021/11/13 04:17:41;;;;;;;40.10;22.90;;;6.00;99.90;;;;;;5075395;28;20836;-82
2021/11/13 04:20:10;;;;;;;37.00;22.23;;;6.00;99.90;;;;;;5067841;27;20527;-82
2021/11/13 04:22:38;;;;;;;41.05;22.40;;;6.00;99.90;;;;;;5057792;28;20270;-84
2021/11/13 04:25:06;;;;;;;37.30;22.30;;;6.00;99.90;;;;;;5058264;28;20222;-83
2021/11/13 04:27:32;;;;;;;41.00;23.92;;;6.00;99.90;;;;;;5069260;28;20289;-83
2021/11/13 04:29:59;;;;;;;35.17;22.08;;;6.00;99.90;;;;;;5073916;28;20270;-86
2021/11/13 04:32:29;;;;;;;37.83;22.38;;;6.00;99.90;;;;;;5058350;28;20237;-83
2021/11/13 04:35:14;;;;;;;40.92;22.10;;;6.00;99.90;;;;;;5057679;28;20211;-87
2021/11/13 04:37:43;;;;;;;34.17;21.88;;;6.00;99.90;;;;;;5069855;28;20302;-86
2021/11/13 04:40:11;;;;;;;38.00;22.50;;;6.00;99.90;;;;;;5095294;28;20638;-89
2021/11/13 04:42:37;;;;;;;35.17;22.17;;;6.00;99.90;;;;;;5077349;27;20278;-89
2021/11/13 04:45:05;;;;;;;44.13;24.63;;;6.00;99.90;;;;;;5057789;28;20242;-90
2021/11/13 04:47:33;;;;;;;39.72;24.70;;;6.00;99.90;;;;;;5072345;27;20607;-90
2021/11/13 04:50:00;;;;;;;36.40;22.05;;;6.00;99.90;;;;;;5076850;27;20667;-89
2021/11/13 04:52:26;;;;;;;38.95;23.08;;;6.00;99.90;;;;;;5062232;27;20657;-90
2021/11/13 04:54:54;;;;;;;38.88;23.10;;;6.00;99.90;;;;;;5061335;27;20701;-90
2021/11/13 04:57:21;;;;;;;37.80;22.40;;;6.00;99.90;;;;;;5065206;27;20222;-90
2021/11/13 04:59:47;;;;;;;40.03;22.63;;;6.00;99.90;;;;;;5079540;27;20304;-89
2021/11/13 05:02:14;;;;;;;36.38;21.85;;;6.00;99.90;;;;;;5067497;27;20210;-89
2021/11/13 05:04:41;;;;;;;34.58;21.73;;;6.00;99.90;;;;;;5062021;27;20712;-90
2021/11/13 05:07:07;;;;;;;38.70;22.07;;;6.00;99.90;;;;;;5062043;27;20245;-89
2021/11/13 05:09:34;;;;;;;34.60;21.65;;;6.10;99.90;;;;;;5074101;27;20518;-90
2021/11/13 05:12:01;;;;;;;34.58;22.17;;;6.10;99.90;;;;;;5076274;27;20588;-89
2021/11/13 05:14:28;;;;;;;35.13;21.00;;;6.10;99.90;;;;;;5056125;27;20278;-91
2021/11/13 05:16:55;;;;;;;34.33;21.83;;;6.00;99.90;;;;;;5107765;27;20301;-91
2021/11/13 05:19:21;;;;;;;42.70;23.43;;;6.00;99.90;;;;;;5104000;27;20681;-86
2021/11/13 05:21:48;;;;;;;38.92;22.35;;;6.00;99.90;;;;;;5089641;27;20481;-86
2021/11/13 05:24:14;;;;;;;35.85;21.75;;;6.00;99.90;;;;;;5061109;27;20701;-87
2021/11/13 05:26:41;;;;;;;38.53;23.55;;;6.00;99.90;;;;;;5060896;27;20230;-88
2021/11/13 05:29:09;;;;;;;35.70;22.15;;;6.10;99.90;;;;;;5060998;27;20223;-88
2021/11/13 05:31:35;;;;;;;35.38;21.60;;;6.10;99.90;;;;;;5103390;27;20274;-87
2021/11/13 05:34:02;;;;;;;37.33;21.77;;;6.10;99.90;;;;;;5048046;27;20705;-86
2021/11/13 05:36:28;;;;;;;34.40;21.13;;;6.10;99.90;;;;;;5112182;27;20301;-85
2021/11/13 05:38:55;;;;;;;32.63;21.17;;;6.10;99.90;;;;;;5071947;27;20579;-86
2021/11/13 05:41:21;;;;;;;34.67;21.45;;;6.10;99.90;;;;;;5075505;27;20237;-86
2021/11/13 05:43:48;;;;;;;39.42;23.30;;;6.10;99.90;;;;;;5034488;27;20225;-86
2021/11/13 05:46:16;;;;;;;35.35;22.33;;;6.10;99.90;;;;;;5118633;27;20237;-85
2021/11/13 05:48:43;;;;;;;39.00;22.00;;;6.10;99.90;;;;;;5065504;27;20183;-85
2021/11/13 05:51:09;;;;;;;36.85;22.10;;;6.10;99.90;;;;;;5083632;27;20494;-87
2021/11/13 05:53:36;;;;;;;35.53;21.23;;;6.10;99.90;;;;;;5103889;27;20650;-87
2021/11/13 05:56:02;;;;;;;37.97;22.23;;;6.10;99.90;;;;;;5049477;27;20866;-85
2021/11/13 05:58:29;;;;;;;32.38;21.30;;;6.10;99.90;;;;;;5112796;27;20625;-86
2021/11/13 06:00:56;;;;;;;36.70;22.15;;;6.10;99.90;;;;;;5075148;27;20214;-86
2021/11/13 06:03:23;;;;;;;32.30;21.35;;;6.10;99.90;;;;;;5073808;27;20222;-85
2021/11/13 06:05:50;;;;;;;32.63;19.55;;;6.10;99.90;;;;;;5113532;27;20183;-85
2021/11/13 06:08:16;;;;;;;39.17;23.45;;;6.10;99.90;;;;;;5049701;27;20651;-85
2021/11/13 06:10:43;;;;;;;36.47;21.55;;;6.10;99.90;;;;;;5102387;27;20219;-86
2021/11/13 06:13:10;;;;;;;32.60;21.02;;;6.10;99.90;;;;;;5084715;27;20244;-85
2021/11/13 06:15:36;;;;;;;33.67;20.27;;;6.10;99.90;;;;;;5064146;27;20305;-87
2021/11/13 06:18:03;;;;;;;37.97;22.60;;;6.00;99.90;;;;;;5117818;27;20477;-87
2021/11/13 06:20:31;;;;;;;35.58;21.00;;;6.10;99.90;;;;;;5056417;27;20210;-87
2021/11/13 06:22:58;;;;;;;32.88;20.38;;;6.10;99.90;;;;;;5091705;27;20222;-88
2021/11/13 06:25:24;;;;;;;36.95;21.20;;;6.10;99.90;;;;;;5095460;27;20217;-91
2021/11/13 06:27:51;;;;;;;33.50;19.60;;;6.10;99.90;;;;;;5053933;27;20634;-89
2021/11/13 06:30:18;;;;;;;34.78;20.75;;;6.10;99.90;;;;;;5133435;27;20672;-85
2021/11/13 06:32:47;;;;;;;32.53;21.15;;;6.10;99.90;;;;;;5100670;27;20289;-90
2021/11/13 06:35:15;;;;;;;34.28;21.45;;;6.20;99.90;;;;;;5087359;27;20588;-89
2021/11/13 06:37:43;;;;;;;35.28;19.63;;;6.10;99.90;;;;;;5059185;27;20218;-92
2021/11/13 06:40:12;;;;;;;35.58;23.20;;;6.10;99.90;;;;;;5116651;27;20270;-89
2021/11/13 06:42:39;;;;;;;37.20;22.17;;;6.20;99.90;;;;;;5033740;27;20222;-89
2021/11/13 06:45:09;;;;;;;30.58;19.00;;;6.20;99.90;;;;;;5081624;27;20206;-88
2021/11/13 06:47:36;;;;;;;28.08;19.15;;;6.20;99.90;;;;;;5064058;27;20230;-88
2021/11/13 06:50:02;;;;;;;30.40;19.65;;;6.20;99.90;;;;;;5117835;27;20273;-88
2021/11/13 06:52:29;;;;;;;32.72;20.30;;;6.20;99.90;;;;;;5054876;27;20219;-88
2021/11/13 06:54:57;;;;;;;35.00;20.15;;;6.20;99.90;;;;;;5092447;27;20290;-88
2021/11/13 06:57:24;;;;;;;32.92;20.05;;;6.30;99.90;;;;;;5093637;27;20276;-87
2021/11/13 06:59:50;;;;;;;32.70;19.53;;;6.30;99.90;;;;;;5052464;27;20297;-87
2021/11/13 07:02:17;;;;;;;32.47;20.40;;;6.30;99.90;;;;;;5117458;27;20510;-87
2021/11/13 07:04:43;;;;;;;32.45;20.33;;;6.40;99.90;;;;;;5064774;27;20877;-87
2021/11/13 07:07:10;;;;;;;34.72;20.90;;;6.40;99.90;;;;;;5082118;27;20629;-88
2021/11/13 07:09:37;;;;;;;29.05;20.00;;;6.40;99.90;;;;;;5102967;27;20187;-89
2021/11/13 07:12:06;;;;;;;31.52;19.45;;;6.40;99.90;;;;;;5049012;27;20285;-88
2021/11/13 07:14:33;;;;;;;31.27;19.25;;;6.40;99.90;;;;;;5108477;27;20278;-88
2021/11/13 07:17:00;;;;;;;33.80;20.90;;;6.50;99.90;;;;;;5076807;27;20242;-89
2021/11/13 07:19:26;;;;;;;30.97;19.90;;;6.50;99.90;;;;;;5070172;27;21004;-88
2021/11/13 07:21:53;;;;;;;33.13;20.27;;;6.60;99.90;;;;;;5114516;27;20445;-88
2021/11/13 07:24:19;;;;;;;29.77;19.73;;;6.70;99.90;;;;;;5048521;27;20179;-88
2021/11/13 07:26:51;;;;;;;31.48;18.67;;;6.70;99.90;;;;;;5098541;27;20279;-86
2021/11/13 07:29:20;;;;;;;30.67;19.30;;;6.80;99.90;;;;;;5082007;27;20274;-87
2021/11/13 07:31:47;;;;;;;30.23;18.30;;;6.80;99.90;;;;;;5051981;27;20932;-85
2021/11/13 07:34:13;;;;;;;30.23;19.80;;;6.90;99.90;;;;;;5045657;27;20491;-84
2021/11/13 07:36:40;;;;;;;31.60;19.77;;;6.90;99.90;;;;;;5037971;27;20293;-84
2021/11/13 07:39:06;;;;;;;29.93;19.20;;;7.00;99.90;;;;;;5037582;28;20475;-84
2021/11/13 07:41:33;;;;;;;31.00;19.38;;;6.90;99.90;;;;;;5037118;27;20540;-88
2021/11/13 07:43:59;;;;;;;36.15;21.45;;;7.00;99.90;;;;;;5040272;27;20725;-85
2021/11/13 07:46:28;;;;;;;29.10;18.63;;;7.00;99.90;;;;;;5040930;27;20746;-86
2021/11/13 07:48:54;;;;;;;32.07;20.13;;;7.00;99.90;;;;;;5037068;28;20449;-86
2021/11/13 07:51:21;;;;;;;29.40;18.63;;;7.10;99.90;;;;;;5030255;28;21011;-86
2021/11/13 07:53:48;;;;;;;35.00;19.80;;;7.10;99.90;;;;;;5030612;28;20449;-87
2021/11/13 07:56:15;;;;;;;29.80;20.47;;;7.10;99.90;;;;;;5035872;28;20485;-90
2021/11/13 07:58:42;;;;;;;30.20;19.43;;;7.20;99.90;;;;;;5055594;27;20472;-89
2021/11/13 08:01:08;;;;;;;31.33;19.80;;;7.20;99.90;;;;;;5125182;27;20528;-88
2021/11/13 08:03:36;;;;;;;33.30;20.10;;;7.20;99.90;;;;;;5034974;28;20532;-88
2021/11/13 08:06:03;;;;;;;36.10;22.37;;;7.20;99.90;;;;;;5041755;28;20544;-86
2021/11/13 08:08:29;;;;;;;28.03;18.53;;;7.30;99.90;;;;;;5038835;28;20532;-86
2021/11/13 08:10:57;;;;;;;29.60;18.90;;;7.30;99.90;;;;;;5034671;28;20484;-85
2021/11/13 08:13:23;;;;;;;34.70;21.50;;;7.30;99.90;;;;;;5042316;28;20532;-86
2021/11/13 08:15:50;;;;;;;29.40;19.50;;;7.40;99.90;;;;;;5041907;28;20498;-85
2021/11/13 08:18:18;;;;;;;31.52;18.80;;;7.40;99.90;;;;;;5054829;28;20483;-85
2021/11/13 08:20:46;;;;;;;34.27;20.00;;;7.40;99.90;;;;;;5044962;27;20214;-86
2021/11/13 08:23:14;;;;;;;35.90;21.70;;;7.40;99.90;;;;;;5088790;27;20498;-86
2021/11/13 08:25:42;;;;;;;32.27;21.53;;;7.50;99.90;;;;;;5063280;27;20445;-88
2021/11/13 08:28:10;;;;;;;30.13;19.77;;;7.50;99.90;;;;;;5119953;27;20520;-89
2021/11/13 08:30:37;;;;;;;30.10;20.60;;;7.50;99.90;;;;;;5062641;27;20465;-87
2021/11/13 08:33:06;;;;;;;33.73;18.30;;;7.50;99.90;;;;;;5088933;27;20453;-87
2021/11/13 08:35:33;;;;;;;27.43;19.53;;;7.60;99.90;;;;;;5103712;27;20761;-87
2021/11/13 08:38:01;;;;;;;25.47;18.57;;;7.60;99.90;;;;;;5048634;27;20576;-88
2021/11/13 08:40:28;;;;;;;33.67;20.80;;;7.60;99.90;;;;;;5115195;27;20473;-86
2021/11/13 08:42:55;;;;;;;34.10;20.33;;;7.60;99.90;;;;;;5075815;27;20527;-88
2021/11/13 08:45:21;;;;;;;33.70;20.90;;;7.70;99.90;;;;;;5076375;27;20521;-88
2021/11/13 08:47:48;;;;;;;28.70;18.90;;;7.70;99.90;;;;;;5114248;27;20531;-87
2021/11/13 08:50:19;;;;;;;25.33;18.47;;;7.70;99.90;;;;;;5051055;27;20528;-87
2021/11/13 08:52:47;;;;;;;29.67;19.23;;;7.80;99.90;;;;;;5102464;27;20517;-88
2021/11/13 08:55:16;;;;;;;32.30;19.97;;;7.80;99.90;;;;;;5088880;27;20472;-87
2021/11/13 08:57:44;;;;;;;30.33;21.00;;;7.80;99.90;;;;;;5060491;27;20915;-87
2021/11/13 09:00:14;;;;;;;29.70;19.20;;;7.90;99.90;;;;;;5119192;27;20475;-87
2021/11/13 09:02:41;;;;;;;31.27;18.50;;;7.90;99.90;;;;;;5064963;27;20479;-86
2021/11/13 09:05:09;;;;;;;28.90;19.00;;;8.00;99.90;;;;;;5085823;27;20441;-86
2021/11/13 09:07:37;;;;;;;29.90;20.20;;;8.00;99.90;;;;;;5105852;27;20437;-85
2021/11/13 09:10:05;;;;;;;32.10;21.97;;;8.00;99.90;;;;;;5051009;27;20548;-86
2021/11/13 09:12:34;;;;;;;39.90;23.80;;;8.10;99.90;;;;;;5111831;27;20846;-86
2021/11/13 09:15:04;;;;;;;37.17;23.20;;;8.00;99.90;;;;;;5078959;27;20924;-85
2021/11/13 09:17:31;;;;;;;33.07;21.27;;;8.10;99.90;;;;;;5069092;27;20569;-86
2021/11/13 09:19:58;;;;;;;30.57;19.97;;;8.10;99.90;;;;;;5118979;27;20440;-88
2021/11/13 09:22:25;;;;;;;32.23;20.70;;;8.10;99.90;;;;;;5052943;27;20531;-88
2021/11/13 09:24:52;;;;;;;28.37;19.67;;;8.10;99.90;;;;;;5096834;27;20536;-76
2021/11/13 09:27:19;;;;;;;27.73;19.67;;;8.10;99.90;;;;;;5091521;27;20437;-79
2021/11/13 09:29:47;;;;;;;28.97;18.50;;;8.20;99.90;;;;;;5057524;27;20484;-79
2021/11/13 09:32:13;;;;;;;27.43;18.03;;;8.20;99.90;;;;;;5117440;27;20511;-79
2021/11/13 09:34:40;;;;;;;26.50;18.23;;;8.30;99.90;;;;;;5063175;27;20472;-79
2021/11/13 09:37:07;;;;;;;29.13;18.80;;;8.30;99.90;;;;;;5085519;27;20560;-78
2021/11/13 09:39:33;;;;;;;28.13;19.00;;;8.40;99.90;;;;;;5098700;27;20480;-79
2021/11/13 09:42:02;;;;;;;35.70;20.27;;;8.50;99.90;;;;;;5048823;27;20532;-78
2021/11/13 09:44:29;;;;;;;26.80;17.47;;;8.70;99.90;;;;;;5055180;27;20461;-78
2021/11/13 09:47:00;;;;;;;29.80;18.80;;;8.80;99.90;;;;;;5110378;27;20480;-77
2021/11/13 09:49:29;;;;;;;27.23;19.20;;;8.80;99.90;;;;;;5121394;27;20777;-78
2021/11/13 09:51:56;;;;;;;30.23;19.77;;;8.80;99.90;;;;;;5121433;27;20535;-79
2021/11/13 09:54:23;;;;;;;25.33;16.97;;;8.90;99.90;;;;;;5063091;27;20449;-79
2021/11/13 09:56:50;;;;;;;28.57;17.17;;;8.90;99.90;;;;;;5071268;27;20545;-79
2021/11/13 09:59:17;;;;;;;28.43;18.27;;;8.90;99.90;;;;;;5108111;27;20473;-78
2021/11/13 10:01:44;;;;;;;27.23;17.57;;;8.90;99.90;;;;;;5070839;27;20449;-78
2021/11/13 10:04:12;;;;;;;22.73;16.07;;;8.90;99.90;;;;;;5110825;27;20523;-78
2021/11/13 10:06:39;;;;;;;25.37;16.83;;;8.90;99.90;;;;;;5119386;27;20477;-78
2021/11/13 10:09:05;;;;;;;32.87;18.00;;;8.90;99.90;;;;;;5120880;27;20525;-78
2021/11/13 10:11:32;;;;;;;24.10;15.70;;;8.90;99.90;;;;;;5078876;27;20530;-78
2021/11/13 10:14:00;;;;;;;23.33;16.50;;;8.90;99.90;;;;;;5046589;27;21028;-78
2021/11/13 10:16:32;;;;;;;23.90;16.70;;;8.80;99.90;;;;;;5054490;27;20524;-78
2021/11/13 10:19:04;;;;;;;22.97;16.40;;;8.90;99.90;;;;;;5044815;27;20452;-78
2021/11/13 10:21:32;;;;;;;25.00;16.57;;;8.90;99.90;;;;;;5044667;27;20477;-78
2021/11/13 10:24:04;;;;;;;24.80;16.13;;;9.00;99.90;;;;;;5046917;27;20566;-78
2021/11/13 10:26:32;;;;;;;22.20;16.70;;;9.10;99.90;;;;;;5052078;27;20472;-79
2021/11/13 10:29:04;;;;;;;26.53;16.27;;;9.20;99.90;;;;;;5100792;27;20469;-78
2021/11/13 10:31:32;;;;;;;22.40;16.00;;;9.20;99.90;;;;;;5120609;27;20518;-78
2021/11/13 10:34:01;;;;;;;22.17;15.50;;;9.30;99.90;;;;;;5118776;27;20440;-78
2021/11/13 10:36:29;;;;;;;27.60;17.43;;;9.30;99.90;;;;;;5110352;27;20537;-78
2021/11/13 10:39:00;;;;;;;31.57;20.10;;;9.30;99.90;;;;;;5086821;27;20541;-78
2021/11/13 10:41:27;;;;;;;29.37;19.47;;;9.30;99.90;;;;;;5044335;27;20488;-79
2021/11/13 10:43:53;;;;;;;24.90;18.30;;;9.30;99.90;;;;;;5102679;27;20528;-78
2021/11/13 10:46:22;;;;;;;26.27;16.93;;;9.40;99.90;;;;;;5105735;27;20573;-81
2021/11/13 10:48:53;;;;;;;23.77;16.70;;;9.40;99.90;;;;;;5067103;27;20568;-80
2021/11/13 10:51:21;;;;;;;25.67;16.77;;;9.40;99.90;;;;;;5041785;27;20535;-80
2021/11/13 10:53:49;;;;;;;23.63;16.30;;;9.50;99.90;;;;;;5069365;27;20548;-81
2021/11/13 10:56:19;;;;;;;20.50;15.30;;;9.50;99.90;;;;;;5050727;27;20473;-81
2021/11/13 10:58:56;;;;;;;24.57;15.60;;;9.60;99.90;;;;;;5041999;27;20563;-81
2021/11/13 11:01:35;;;;;;;26.80;17.40;;;9.70;99.90;;;;;;5073605;27;20450;-80
2021/11/13 11:04:10;;;;;;;24.63;16.50;;;9.80;99.90;;;;;;5105697;27;20799;-81
2021/11/13 11:06:38;;;;;;;22.33;14.90;;;9.90;99.90;;;;;;5052830;27;20535;-80
2021/11/13 11:09:15;;;;;;;23.30;15.97;;;10.00;99.90;;;;;;5092532;27;20453;-81
2021/11/13 11:11:43;;;;;;;20.93;15.20;;;10.10;99.90;;;;;;5096121;27;20551;-80
2021/11/13 11:14:11;;;;;;;21.20;14.87;;;10.10;99.90;;;;;;5051853;27;20480;-80
2021/11/13 11:16:40;;;;;;;23.83;15.00;;;10.20;99.90;;;;;;5110485;27;20449;-81
2021/11/13 11:19:08;;;;;;;20.40;14.47;;;10.30;99.90;;;;;;5051688;27;20448;-80
2021/11/13 11:21:50;;;;;;;19.87;14.47;;;10.30;99.90;;;;;;5069816;27;20860;-78
2021/11/13 11:24:22;;;;;;;19.80;14.90;;;10.40;99.90;;;;;;5076754;27;20505;-78
2021/11/13 11:26:56;;;;;;;18.67;14.10;;;10.40;99.90;;;;;;5094372;27;20444;-77
2021/11/13 11:29:24;;;;;;;18.60;13.17;;;10.40;99.90;;;;;;5043782;27;20532;-78
2021/11/13 11:31:53;;;;;;;19.70;15.00;;;10.50;99.90;;;;;;5043844;27;20890;-77
2021/11/13 11:34:25;;;;;;;19.37;14.10;;;10.50;99.90;;;;;;5063588;27;20610;-77
2021/11/13 11:36:52;;;;;;;18.03;12.80;;;10.50;99.90;;;;;;5070021;27;20881;-77
2021/11/13 11:39:19;;;;;;;18.07;13.80;;;10.40;99.90;;;;;;5055968;27;21015;-77
2021/11/13 11:41:47;;;;;;;18.83;13.97;;;10.40;99.90;;;;;;5058297;27;20502;-77
2021/11/13 11:44:16;;;;;;;21.07;14.30;;;10.40;99.90;;;;;;5078125;27;20558;-78
2021/11/13 11:46:43;;;;;;;17.63;13.07;;;10.40;99.90;;;;;;5033408;27;20500;-78
2021/11/13 11:49:11;;;;;;;18.77;13.67;;;10.30;99.90;;;;;;5039202;27;20488;-78
2021/11/13 11:51:38;;;;;;;18.93;13.03;;;10.30;99.90;;;;;;5039867;27;20481;-78
2021/11/13 11:54:05;;;;;;;18.63;12.73;;;10.20;99.90;;;;;;5046394;27;20541;-78
2021/11/13 11:56:33;;;;;;;21.03;12.70;;;10.20;99.90;;;;;;5060294;27;20450;-78
2021/11/13 11:59:00;;;;;;;18.00;12.73;;;10.20;99.90;;;;;;5096403;27;20564;-78
2021/11/13 12:01:30;;;;;;;16.60;12.23;;;10.20;99.90;;;;;;5062018;28;20631;-78
2021/11/13 12:04:11;;;;;;;18.23;13.40;;;10.20;99.90;;;;;;5070166;28;20536;-78
2021/11/13 12:06:43;;;;;;;18.33;12.00;;;10.30;99.90;;;;;;5063636;28;20473;-78
2021/11/13 12:09:10;;;;;;;16.30;12.30;;;10.40;99.90;;;;;;5081060;28;20437;-78
2021/11/13 12:11:37;;;;;;;15.03;11.53;;;10.40;99.90;;;;;;5061371;27;20506;-78
2021/11/13 12:14:24;;;;;;;17.17;11.43;;;10.40;99.90;;;;;;5053786;28;20437;-77
2021/11/13 12:16:52;;;;;;;16.23;11.83;;;10.40;99.90;;;;;;5057270;28;20445;-78
2021/11/13 12:19:18;;;;;;;17.00;12.47;;;10.40;99.90;;;;;;5074619;28;21074;-78
2021/11/13 12:21:53;;;;;;;18.23;11.80;;;10.40;99.90;;;;;;5107514;28;20495;-78
2021/11/13 12:24:19;;;;;;;15.13;12.00;;;10.30;99.90;;;;;;5058811;28;20484;-78
2021/11/13 12:27:00;;;;;;;17.90;12.63;;;10.10;99.90;;;;;;5097465;28;20532;-78
2021/11/13 12:29:28;;;;;;;18.97;12.90;;;10.00;99.90;;;;;;5052300;28;20453;-78
2021/11/13 12:31:58;;;;;;;14.30;11.70;;;9.80;99.90;;;;;;5089041;28;20449;-79
2021/11/13 12:34:34;;;;;;;14.13;11.53;;;9.70;99.90;;;;;;5065329;28;20472;-78
2021/11/13 12:37:03;;;;;;;15.77;10.83;;;9.60;99.90;;;;;;5100574;28;20528;-78
2021/11/13 12:39:32;;;;;;;15.27;11.57;;;9.50;99.90;;;;;;5068299;28;20449;-78